AEE123 LGTS-LGAV
Flight info
| Callsign | AEE123 |
|---|---|
| Flight time | N/A |
| Altitude | 25000 |
| Route | LEKPO UL617 SKP UM749 ROPOX |
| Aircraft | A320/M-SDE3FGHIRWY/LB1 |
Departure
| Time | 2026-04-28 17:02 |
|---|---|
| Airport | Thessaloniki Macedonia International Airport (LGTS) |
Arrival
| Time | N/A |
|---|---|
| Airport | Athens Eleftherios Venizelos International Airport (LGAV) |
| Time | Latitude | Longitude | Altitude | Speed | Heading |
|---|---|---|---|---|---|
| 2026-04-28 16:49 | 40.52402 | 22.97461 | 28 ft | 0 kts | 44° |
| 2026-04-28 16:54 | 40.52401 | 22.97460 | 28 ft | 1 kts | 44° |
| 2026-04-28 16:54 | 40.52390 | 22.97445 | 28 ft | 3 kts | 44° |
| 2026-04-28 16:54 | 40.52375 | 22.97427 | 28 ft | 3 kts | 44° |
| 2026-04-28 16:54 | 40.52365 | 22.97414 | 28 ft | 3 kts | 44° |
| 2026-04-28 16:55 | 40.52346 | 22.97390 | 28 ft | 3 kts | 36° |
| 2026-04-28 16:55 | 40.52329 | 22.97377 | 28 ft | 3 kts | 14° |
| 2026-04-28 16:55 | 40.52312 | 22.97375 | 28 ft | 2 kts | 325° |
| 2026-04-28 16:55 | 40.52304 | 22.97384 | 28 ft | 2 kts | 315° |
| 2026-04-28 16:56 | 40.52295 | 22.97396 | 28 ft | 1 kts | 315° |
| 2026-04-28 16:56 | 40.52295 | 22.97397 | 28 ft | 0 kts | 315° |
| 2026-04-28 16:57 | 40.52300 | 22.97389 | 28 ft | 3 kts | 315° |
| 2026-04-28 16:58 | 40.52328 | 22.97353 | 28 ft | 7 kts | 315° |
| 2026-04-28 16:58 | 40.52368 | 22.97300 | 28 ft | 9 kts | 315° |
| 2026-04-28 16:58 | 40.52383 | 22.97218 | 28 ft | 10 kts | 260° |
| 2026-04-28 16:58 | 40.52413 | 22.97140 | 28 ft | 11 kts | 333° |
| 2026-04-28 16:59 | 40.52455 | 22.97124 | 28 ft | 12 kts | 347° |
| 2026-04-28 16:59 | 40.52468 | 22.97120 | 28 ft | 13 kts | 347° |
| 2026-04-28 16:59 | 40.52561 | 22.97092 | 29 ft | 15 kts | 347° |
| 2026-04-28 17:00 | 40.52634 | 22.97069 | 29 ft | 16 kts | 346° |
| 2026-04-28 17:00 | 40.52699 | 22.97049 | 29 ft | 17 kts | 346° |
| 2026-04-28 17:00 | 40.52824 | 22.97008 | 29 ft | 20 kts | 346° |
| 2026-04-28 17:00 | 40.52963 | 22.96964 | 29 ft | 21 kts | 346° |
| 2026-04-28 17:01 | 40.53064 | 22.96921 | 28 ft | 12 kts | 314° |
| 2026-04-28 17:01 | 40.53040 | 22.96824 | 28 ft | 14 kts | 219° |
| 2026-04-28 17:01 | 40.52985 | 22.96777 | 28 ft | 7 kts | 194° |
| 2026-04-28 17:01 | 40.52968 | 22.96782 | 28 ft | 1 kts | 166° |
| 2026-04-28 17:02 | 40.52789 | 22.96838 | 30 ft | 61 kts | 166° |
| 2026-04-28 17:02 | 40.52414 | 22.96956 | 28 ft | 102 kts | 166° |
| 2026-04-28 17:02 | 40.51214 | 22.97336 | 66 ft | 158 kts | 166° |
| 2026-04-28 17:02 | 40.50169 | 22.97661 | 685 ft | 150 kts | 168° |
| 2026-04-28 17:03 | 40.48048 | 22.98235 | 1476 ft | 171 kts | 169° |
| 2026-04-28 17:03 | 40.46802 | 22.98569 | 1692 ft | 195 kts | 169° |
| 2026-04-28 17:03 | 40.45394 | 22.98952 | 1939 ft | 217 kts | 169° |
| 2026-04-28 17:04 | 40.42123 | 22.99849 | 2783 ft | 258 kts | 168° |
| 2026-04-28 17:04 | 40.40348 | 23.00344 | 3612 ft | 263 kts | 168° |
| 2026-04-28 17:05 | 40.36722 | 23.01362 | 5340 ft | 270 kts | 168° |
| 2026-04-28 17:05 | 40.34888 | 23.01962 | 6173 ft | 274 kts | 162° |
| 2026-04-28 17:05 | 40.33102 | 23.02877 | 6990 ft | 277 kts | 156° |
| 2026-04-28 17:06 | 40.30180 | 23.04700 | 8314 ft | 283 kts | 154° |
| 2026-04-28 17:06 | 40.28399 | 23.05851 | 9081 ft | 286 kts | 154° |
| 2026-04-28 17:06 | 40.24752 | 23.08139 | 10385 ft | 301 kts | 155° |
| 2026-04-28 17:07 | 40.22782 | 23.09339 | 10565 ft | 324 kts | 155° |
| 2026-04-28 17:07 | 40.20670 | 23.10609 | 10816 ft | 342 kts | 156° |
| 2026-04-28 17:07 | 40.18486 | 23.11912 | 11392 ft | 348 kts | 156° |
| 2026-04-28 17:07 | 40.16267 | 23.13230 | 12034 ft | 352 kts | 156° |
| 2026-04-28 17:08 | 40.14029 | 23.14557 | 12685 ft | 355 kts | 156° |
| 2026-04-28 17:08 | 40.11769 | 23.15896 | 13301 ft | 358 kts | 156° |
| 2026-04-28 17:08 | 40.09466 | 23.17188 | 13920 ft | 362 kts | 158° |
| 2026-04-28 17:08 | 40.07112 | 23.18388 | 14520 ft | 365 kts | 160° |
| 2026-04-28 17:09 | 40.04721 | 23.19544 | 15097 ft | 368 kts | 160° |
| 2026-04-28 17:09 | 40.02308 | 23.20690 | 15661 ft | 371 kts | 160° |
| 2026-04-28 17:09 | 39.99874 | 23.21852 | 16212 ft | 374 kts | 160° |
| 2026-04-28 17:09 | 39.97415 | 23.23037 | 16761 ft | 377 kts | 160° |
| 2026-04-28 17:10 | 39.94979 | 23.24221 | 17300 ft | 380 kts | 160° |
| 2026-04-28 17:10 | 39.92491 | 23.25436 | 17845 ft | 383 kts | 160° |
| 2026-04-28 17:10 | 39.89983 | 23.26668 | 18389 ft | 387 kts | 160° |
| 2026-04-28 17:10 | 39.87456 | 23.27913 | 18938 ft | 390 kts | 159° |
| 2026-04-28 17:11 | 39.84908 | 23.29170 | 19485 ft | 393 kts | 160° |
| 2026-04-28 17:11 | 39.82342 | 23.30430 | 20022 ft | 396 kts | 160° |
| 2026-04-28 17:11 | 39.79749 | 23.31696 | 20565 ft | 399 kts | 160° |
| 2026-04-28 17:11 | 39.77135 | 23.32970 | 21069 ft | 402 kts | 160° |
| 2026-04-28 17:12 | 39.74505 | 23.34253 | 21562 ft | 405 kts | 160° |
| 2026-04-28 17:12 | 39.71855 | 23.35551 | 22024 ft | 408 kts | 160° |
| 2026-04-28 17:12 | 39.69187 | 23.36855 | 22464 ft | 411 kts | 160° |
| 2026-04-28 17:12 | 39.66500 | 23.38166 | 22901 ft | 414 kts | 160° |
| 2026-04-28 17:13 | 39.63793 | 23.39480 | 23326 ft | 417 kts | 160° |
| 2026-04-28 17:13 | 39.61070 | 23.40801 | 23744 ft | 419 kts | 160° |
| 2026-04-28 17:13 | 39.58332 | 23.42128 | 24141 ft | 422 kts | 160° |
| 2026-04-28 17:13 | 39.55574 | 23.43465 | 24532 ft | 424 kts | 160° |
| 2026-04-28 17:14 | 39.52800 | 23.44810 | 24889 ft | 427 kts | 160° |
| 2026-04-28 17:14 | 39.50015 | 23.46160 | 24991 ft | 427 kts | 160° |
| 2026-04-28 17:14 | 39.47226 | 23.47509 | 25007 ft | 428 kts | 160° |
| 2026-04-28 17:14 | 39.44437 | 23.48855 | 25005 ft | 427 kts | 160° |
| 2026-04-28 17:15 | 39.41653 | 23.50202 | 25007 ft | 427 kts | 160° |
| 2026-04-28 17:15 | 39.38867 | 23.51552 | 25002 ft | 427 kts | 160° |
| 2026-04-28 17:15 | 39.36070 | 23.52860 | 25004 ft | 427 kts | 165° |
| 2026-04-28 17:15 | 39.33159 | 23.53589 | 25017 ft | 427 kts | 171° |
| 2026-04-28 17:16 | 39.30227 | 23.54186 | 25011 ft | 427 kts | 171° |
| 2026-04-28 17:16 | 39.27291 | 23.54773 | 25005 ft | 427 kts | 171° |
| 2026-04-28 17:16 | 39.24356 | 23.55357 | 25002 ft | 427 kts | 171° |
| 2026-04-28 17:16 | 39.21424 | 23.55939 | 25000 ft | 426 kts | 172° |
| 2026-04-28 17:17 | 39.18491 | 23.56519 | 25002 ft | 426 kts | 171° |
| 2026-04-28 17:17 | 39.15561 | 23.57100 | 25000 ft | 426 kts | 171° |
| 2026-04-28 17:17 | 39.12624 | 23.57686 | 25000 ft | 426 kts | 171° |
| 2026-04-28 17:17 | 39.09692 | 23.58270 | 25000 ft | 426 kts | 171° |
| 2026-04-28 17:18 | 39.06758 | 23.58854 | 25000 ft | 426 kts | 171° |
| 2026-04-28 17:18 | 39.03864 | 23.59428 | 24995 ft | 426 kts | 171° |
| 2026-04-28 17:18 | 39.00890 | 23.60016 | 25001 ft | 426 kts | 172° |
| 2026-04-28 17:18 | 38.97999 | 23.60585 | 24999 ft | 426 kts | 172° |
| 2026-04-28 17:19 | 38.95067 | 23.61162 | 25001 ft | 426 kts | 172° |
| 2026-04-28 17:19 | 38.92137 | 23.61738 | 25000 ft | 426 kts | 172° |
| 2026-04-28 17:19 | 38.89204 | 23.62317 | 25002 ft | 426 kts | 171° |
| 2026-04-28 17:19 | 38.86272 | 23.62896 | 25000 ft | 426 kts | 172° |
| 2026-04-28 17:20 | 38.83343 | 23.63471 | 25002 ft | 426 kts | 172° |
| 2026-04-28 17:20 | 38.81362 | 23.63857 | 24996 ft | 426 kts | 172° |
| 2026-04-28 17:20 | 38.77479 | 23.64614 | 24999 ft | 426 kts | 172° |
| 2026-04-28 17:20 | 38.74548 | 23.65187 | 24995 ft | 426 kts | 172° |
| 2026-04-28 17:21 | 38.71600 | 23.65764 | 24997 ft | 426 kts | 172° |
| 2026-04-28 17:21 | 38.68680 | 23.66337 | 24975 ft | 418 kts | 171° |
| 2026-04-28 17:21 | 38.65841 | 23.66896 | 24684 ft | 409 kts | 172° |
| 2026-04-28 17:22 | 38.60265 | 23.67991 | 23841 ft | 402 kts | 172° |
| 2026-04-28 17:22 | 38.57514 | 23.68532 | 23413 ft | 399 kts | 171° |
| 2026-04-28 17:22 | 38.54775 | 23.69071 | 22992 ft | 396 kts | 172° |
| 2026-04-28 17:23 | 38.49359 | 23.70127 | 22158 ft | 391 kts | 172° |
| 2026-04-28 17:23 | 38.46707 | 23.70637 | 21739 ft | 389 kts | 172° |
| 2026-04-28 17:23 | 38.44042 | 23.71151 | 21310 ft | 386 kts | 172° |
| 2026-04-28 17:23 | 38.41394 | 23.71666 | 20874 ft | 383 kts | 172° |
| 2026-04-28 17:24 | 38.38766 | 23.72178 | 20426 ft | 381 kts | 172° |
| 2026-04-28 17:24 | 38.36152 | 23.72685 | 19979 ft | 378 kts | 172° |
| 2026-04-28 17:24 | 38.33561 | 23.73188 | 19534 ft | 375 kts | 172° |
| 2026-04-28 17:24 | 38.30989 | 23.73689 | 19106 ft | 372 kts | 172° |
| 2026-04-28 17:25 | 38.28430 | 23.74185 | 18984 ft | 372 kts | 172° |
| 2026-04-28 17:25 | 38.23326 | 23.75083 | 18315 ft | 368 kts | 180° |
| 2026-04-28 17:25 | 38.20808 | 23.74636 | 17848 ft | 364 kts | 194° |
| 2026-04-28 17:26 | 38.18360 | 23.73825 | 17358 ft | 362 kts | 195° |
| 2026-04-28 17:26 | 38.15937 | 23.72995 | 16890 ft | 360 kts | 195° |
| 2026-04-28 17:26 | 38.13558 | 23.72178 | 16434 ft | 357 kts | 195° |
| 2026-04-28 17:26 | 38.11137 | 23.71347 | 15967 ft | 355 kts | 195° |
| 2026-04-28 17:27 | 38.09556 | 23.70804 | 15662 ft | 353 kts | 195° |
| 2026-04-28 17:27 | 38.09165 | 23.70670 | 15586 ft | 353 kts | 197° |
| 2026-04-28 17:27 | 38.06809 | 23.69811 | 15122 ft | 350 kts | 195° |
| 2026-04-28 17:27 | 38.04466 | 23.69002 | 14665 ft | 348 kts | 195° |
| 2026-04-28 17:28 | 38.02137 | 23.68203 | 14211 ft | 346 kts | 195° |
| 2026-04-28 17:28 | 37.97525 | 23.66622 | 13301 ft | 341 kts | 195° |
| 2026-04-28 17:28 | 37.95241 | 23.65840 | 12856 ft | 339 kts | 195° |
| 2026-04-28 17:29 | 37.92969 | 23.65063 | 12404 ft | 336 kts | 195° |
| 2026-04-28 17:29 | 37.90715 | 23.64292 | 11960 ft | 334 kts | 195° |
| 2026-04-28 17:29 | 37.88497 | 23.63535 | 11281 ft | 329 kts | 195° |
| 2026-04-28 17:30 | 37.84106 | 23.62358 | 10107 ft | 309 kts | 176° |
| 2026-04-28 17:30 | 37.80440 | 23.64370 | 9322 ft | 287 kts | 137° |
| 2026-04-28 17:30 | 37.79155 | 23.66279 | 8728 ft | 285 kts | 127° |
| 2026-04-28 17:31 | 37.78007 | 23.68313 | 8134 ft | 283 kts | 125° |